Time;durP1;ratioP1;P1;durP2;ratioP2;P2;SDS_P1;SDS_P2;PMS_P1;PMS_P2;Temp;Humidity;BMP_temperature;BMP_pressure;BME280_temperature;BME280_humidity;BME280_pressure;Samples;Min_cycle;Max_cycle;Signal;HPM_P1;HPM_P2
2022/06/01 00:01:45;;;;;;;;;3.75;3.75;;;;;17.44;41.47;100912.34;4976116;28;46646;-53
2022/06/01 00:04:11;;;;;;;;;3.80;3.80;;;;;17.23;41.59;100885.41;4976289;28;45394;-54
2022/06/01 00:06:36;;;;;;;;;3.00;3.00;;;;;17.25;41.89;100914.56;4976357;28;45367;-54
2022/06/01 00:09:02;;;;;;;;;2.00;2.00;;;;;17.29;41.45;100920.44;4990453;28;45657;-52
2022/06/01 00:11:28;;;;;;;;;2.75;2.00;;;;;17.28;41.74;100919.59;4995814;28;45437;-52
2022/06/01 00:13:53;;;;;;;;;3.00;3.00;;;;;17.30;41.77;100922.94;4993956;28;45389;-52
2022/06/01 00:16:19;;;;;;;;;3.00;3.00;;;;;17.25;41.86;100916.50;4995899;28;45199;-51
2022/06/01 00:18:44;;;;;;;;;2.25;2.25;;;;;17.16;41.91;100904.97;4995858;28;45438;-50
2022/06/01 00:21:10;;;;;;;;;4.75;3.75;;;;;17.23;41.75;100921.47;4995062;28;45868;-53
2022/06/01 00:23:36;;;;;;;;;5.00;5.00;;;;;17.25;42.01;100922.03;4995428;28;45358;-50
2022/06/01 00:26:02;;;;;;;;;6.80;5.60;;;;;17.24;42.13;100915.63;4995187;28;45249;-55
2022/06/01 00:28:28;;;;;;;;;5.80;5.80;;;;;17.22;41.95;100917.84;4995596;28;45887;-53
2022/06/01 00:30:53;;;;;;;;;4.00;4.00;;;;;17.24;42.23;100929.50;4997288;28;46447;-50
2022/06/01 00:33:19;;;;;;;;;5.75;4.25;;;;;17.21;42.13;100921.72;4998411;28;45373;-49
2022/06/01 00:35:44;;;;;;;;;6.25;4.75;;;;;17.23;42.09;100924.22;5030825;28;45450;-57
2022/06/01 00:38:10;;;;;;;;;8.00;7.25;;;;;16.90;42.52;100888.72;5030306;28;45397;-55
2022/06/01 00:40:36;;;;;;;;;6.50;6.00;;;;;16.94;42.46;100889.06;4997396;28;46636;-54
2022/06/01 00:43:15;;;;;;;;;5.50;5.50;;;;;17.16;42.50;100922.47;4998224;28;45501;-54
2022/06/01 00:45:40;;;;;;;;;6.00;5.80;;;;;17.12;42.59;100921.28;4998760;28;45333;-52
2022/06/01 00:48:06;;;;;;;;;5.25;5.00;;;;;17.13;42.53;100919.34;5030234;28;45389;-53
2022/06/01 00:50:36;;;;;;;;;7.00;6.00;;;;;17.11;42.34;100919.59;4997092;28;47954;-54
2022/06/01 00:53:06;;;;;;;;;3.80;3.80;;;;;17.12;42.48;100929.59;5013191;28;45435;-53
2022/06/01 00:55:34;;;;;;;;;6.00;6.00;;;;;17.08;42.69;100920.13;4998558;28;45355;-53
2022/06/01 00:58:21;;;;;;;;;5.40;5.40;;;;;17.05;42.55;100907.59;5013597;28;45454;-56
2022/06/01 01:00:48;;;;;;;;;4.60;4.60;;;;;17.03;42.50;100917.25;4998539;28;45656;-55
2022/06/01 01:03:14;;;;;;;;;8.80;6.40;;;;;17.07;42.86;100926.72;5013725;28;45381;-53
2022/06/01 01:05:41;;;;;;;;;5.25;5.00;;;;;17.06;42.85;100925.06;4998452;28;45506;-52
2022/06/01 01:08:06;;;;;;;;;6.00;6.00;;;;;17.00;43.18;100928.78;5027827;28;45375;-52
2022/06/01 01:10:32;;;;;;;;;5.00;5.00;;;;;16.90;43.48;100923.91;4978278;28;45301;-50
2022/06/01 01:13:03;;;;;;;;;6.25;6.25;;;;;16.87;43.14;100914.16;4978617;28;45414;-52
2022/06/01 01:15:38;;;;;;;;;3.60;3.60;;;;;16.70;43.47;100891.97;4977329;28;45253;-54
2022/06/01 01:18:14;;;;;;;;;7.20;5.20;;;;;16.92;43.24;100924.53;4961942;28;45483;-54
2022/06/01 01:21:02;;;;;;;;;4.40;4.00;;;;;16.97;43.03;100918.22;4961265;28;45433;-53
2022/06/01 01:23:40;;;;;;;;;4.00;4.00;;;;;16.97;43.26;100918.22;4972302;28;45452;-52
2022/06/01 01:26:06;;;;;;;;;4.20;4.20;;;;;16.76;42.94;100881.84;4973163;28;45687;-57
2022/06/01 01:28:32;;;;;;;;;3.75;2.75;;;;;16.89;43.12;100906.47;5012183;28;45756;-57
2022/06/01 01:31:05;;;;;;;;;5.00;5.00;;;;;16.77;43.07;100889.88;5028451;28;46361;-52
2022/06/01 01:33:30;;;;;;;;;3.80;3.80;;;;;16.93;43.31;100913.16;4996311;28;45427;-52
2022/06/01 01:36:14;;;;;;;;;5.25;3.75;;;;;16.90;43.40;100915.59;4977126;28;45981;-51
2022/06/01 01:38:52;;;;;;;;;2.20;2.20;;;;;16.92;43.10;100914.25;5026692;28;45515;-55
2022/06/01 01:41:26;;;;;;;;;3.00;3.00;;;;;16.88;43.55;100921.41;4996151;28;46112;-54
2022/06/01 01:44:00;;;;;;;;;3.00;3.00;;;;;16.80;43.14;100916.25;5021583;28;45494;-51
2022/06/01 01:46:27;;;;;;;;;2.40;2.40;;;;;16.83;43.61;100917.69;4997654;28;45408;-49
2022/06/01 01:48:53;;;;;;;;;3.00;3.00;;;;;16.74;43.37;100915.34;4997249;28;45326;-51
2022/06/01 01:51:20;;;;;;;;;2.25;2.00;;;;;16.80;43.65;100922.66;4997401;28;46564;-47
2022/06/01 01:53:45;;;;;;;;;3.40;3.40;;;;;16.83;44.00;100917.69;4996976;28;45227;-51
2022/06/01 01:56:19;;;;;;;;;3.25;3.00;;;;;16.82;43.97;100919.63;4997434;28;45247;-52
2022/06/01 01:59:28;;;;;;;;;3.20;3.20;;;;;16.76;43.75;100910.38;5027403;28;45540;-52
2022/06/01 02:02:16;;;;;;;;;2.00;2.00;;;;;16.75;43.95;100911.47;5022534;28;45407;-50
2022/06/01 02:07:59;;;;;;;;;3.00;3.00;;;;;16.72;44.36;100900.03;4996149;28;45599;-53
2022/06/01 02:13:08;;;;;;;;;6.20;3.60;;;;;16.65;44.31;100884.41;4976083;28;45368;-52
2022/06/01 02:15:35;;;;;;;;;6.00;4.00;;;;;16.67;44.61;100898.84;4976252;28;45340;-56
2022/06/01 02:18:05;;;;;;;;;2.00;2.00;;;;;16.34;44.86;100850.59;4977196;28;45235;-54
2022/06/01 02:20:42;;;;;;;;;4.20;4.00;;;;;16.61;44.89;100887.94;4960116;28;45698;-50
2022/06/01 02:23:11;;;;;;;;;2.40;2.40;;;;;16.52;44.96;100884.72;4960294;28;46720;-57
2022/06/01 02:25:38;;;;;;;;;4.40;3.00;;;;;16.55;44.75;100883.38;4976037;28;45367;-52
2022/06/01 02:28:04;;;;;;;;;3.00;3.00;;;;;16.59;45.00;100884.59;4975724;28;45888;-54
2022/06/01 02:30:36;;;;;;;;;3.00;3.00;;;;;16.56;45.31;100890.59;4976206;28;45841;-53
2022/06/01 02:33:03;;;;;;;;;2.00;2.00;;;;;16.56;45.36;100890.59;4959521;28;45613;-55
2022/06/01 02:35:32;;;;;;;;;2.60;2.60;;;;;16.57;45.37;100898.69;4943142;28;45466;-53
2022/06/01 02:37:58;;;;;;;;;3.20;3.20;;;;;16.57;44.97;100887.59;4959851;28;45384;-53
2022/06/01 02:40:24;;;;;;;;;3.00;3.00;;;;;16.58;45.33;100888.41;4975876;28;45494;-52
2022/06/01 02:42:51;;;;;;;;;2.00;2.00;;;;;16.53;44.63;100876.19;4959466;28;45809;-54
2022/06/01 02:45:20;;;;;;;;;2.00;2.00;;;;;16.54;44.67;100890.84;4975355;28;45760;-53
2022/06/01 02:47:46;;;;;;;;;3.00;2.00;;;;;16.48;44.75;100883.53;4975843;28;45454;-52
2022/06/01 02:50:14;;;;;;;;;1.50;1.50;;;;;16.25;44.75;100852.09;4976674;28;45613;-54
2022/06/01 02:52:39;;;;;;;;;0.80;0.80;;;;;16.33;44.63;100876.63;4975419;28;46903;-50
2022/06/01 02:55:05;;;;;;;;;1.00;1.00;;;;;16.32;44.94;100876.88;4958871;28;45346;-54
2022/06/01 02:57:32;;;;;;;;;1.20;0.80;;;;;16.36;44.80;100881.69;4977051;28;45240;-53
2022/06/01 02:59:57;;;;;;;;;3.00;3.00;;;;;16.39;45.22;100875.63;4977079;28;45408;-52
2022/06/01 03:02:23;;;;;;;;;2.00;2.00;;;;;16.38;45.51;100871.19;4976078;28;46501;-53
2022/06/01 03:04:48;;;;;;;;;5.00;2.00;;;;;16.36;45.73;100866.97;4976547;28;45426;-52
2022/06/01 03:07:14;;;;;;;;;2.50;2.50;;;;;16.32;46.26;100863.03;4976617;28;45713;-57
2022/06/01 03:09:39;;;;;;;;;5.00;5.00;;;;;16.31;46.13;100873.25;4991442;28;45537;-54
2022/06/01 03:12:05;;;;;;;;;2.50;2.50;;;;;16.29;46.30;100875.44;4996392;28;45922;-54
2022/06/01 03:14:31;;;;;;;;;3.00;3.00;;;;;16.23;46.80;100877.25;4994427;28;45446;-51
2022/06/01 03:16:57;;;;;;;;;3.25;3.25;;;;;16.22;46.96;100889.44;4995118;28;45471;-50
2022/06/01 03:19:23;;;;;;;;;6.00;5.00;;;;;16.17;46.86;100888.50;5011216;28;45442;-51
2022/06/01 03:21:48;;;;;;;;;4.00;4.00;;;;;16.08;47.21;100891.66;4994530;28;46593;-52
2022/06/01 03:24:14;;;;;;;;;3.00;3.00;;;;;16.04;47.21;100892.38;4995764;28;45316;-55
2022/06/01 03:26:39;;;;;;;;;3.75;3.50;;;;;15.93;47.47;100881.09;4995832;28;45387;-50
2022/06/01 03:29:05;;;;;;;;;3.25;3.25;;;;;15.95;47.34;100894.72;4996403;28;45295;-54
2022/06/01 03:31:31;;;;;;;;;5.00;3.00;;;;;15.70;47.84;100868.94;4995614;28;46863;-51
2022/06/01 03:33:57;;;;;;;;;3.00;3.00;;;;;15.90;47.55;100895.38;5027836;28;45401;-53
2022/06/01 03:36:23;;;;;;;;;5.00;3.20;;;;;15.86;47.48;100896.97;4994627;28;45347;-52
2022/06/01 03:38:48;;;;;;;;;5.00;3.00;;;;;15.80;48.25;100901.53;4994809;28;45415;-56
2022/06/01 03:41:14;;;;;;;;;3.50;3.50;;;;;15.84;47.94;100899.97;4996096;28;46440;-56
2022/06/01 03:46:24;;;;;;;;;5.80;4.20;;;;;15.75;47.74;100900.59;4995693;28;45353;-57
2022/06/01 03:48:49;;;;;;;;;3.50;3.50;;;;;15.71;47.66;100894.72;4996051;28;45486;-55
2022/06/01 03:51:15;;;;;;;;;3.00;2.50;;;;;15.55;47.85;100866.72;5027641;28;46821;-49
2022/06/01 03:53:40;;;;;;;;;3.00;3.00;;;;;15.53;47.74;100865.28;4994431;28;45494;-54
2022/06/01 03:56:08;;;;;;;;;3.75;3.75;;;;;15.72;47.99;100904.69;4995682;28;45310;-57
2022/06/01 03:58:33;;;;;;;;;2.60;2.60;;;;;15.71;48.36;100920.44;4995986;28;45347;-53
2022/06/01 04:00:59;;;;;;;;;3.00;2.50;;;;;15.71;47.92;100914.06;5027284;28;46060;-54
2022/06/01 04:03:25;;;;;;;;;2.00;2.00;;;;;15.70;47.95;100915.16;4995823;28;45296;-55
2022/06/01 04:05:50;;;;;;;;;2.50;2.50;;;;;15.47;48.27;100880.88;4997243;28;45378;-55
2022/06/01 04:08:16;;;;;;;;;3.25;3.25;;;;;15.65;48.85;100926.97;4996536;28;45453;-53
2022/06/01 04:10:43;;;;;;;;;4.00;3.50;;;;;15.65;48.87;100912.28;4979069;28;46516;-52
2022/06/01 04:13:09;;;;;;;;;4.00;3.00;;;;;15.67;48.53;100912.88;4979515;28;45385;-50
2022/06/01 04:15:35;;;;;;;;;4.20;3.00;;;;;15.64;48.34;100914.19;4979554;28;45401;-56
2022/06/01 04:18:00;;;;;;;;;4.00;3.00;;;;;15.66;48.39;100912.03;4978452;28;45396;-49
2022/06/01 04:20:26;;;;;;;;;3.50;2.50;;;;;15.65;48.93;100917.81;4979360;28;46318;-56
2022/06/01 04:22:54;;;;;;;;;3.75;3.75;;;;;15.51;48.93;100892.31;4979295;28;45359;-51
2022/06/01 04:25:20;;;;;;;;;3.80;3.20;;;;;15.68;48.89;100920.94;4978549;28;45345;-55
2022/06/01 04:27:45;;;;;;;;;4.00;4.00;;;;;15.62;48.74;100919.13;4978362;28;45764;-52
2022/06/01 04:30:13;;;;;;;;;5.00;5.00;;;;;15.49;48.66;100900.00;4978216;28;45427;-51
2022/06/01 04:32:39;;;;;;;;;3.00;3.00;;;;;15.54;48.94;100909.25;4961857;28;45500;-50
2022/06/01 04:35:05;;;;;;;;;4.25;3.50;;;;;15.66;48.89;100939.72;4961410;28;45400;-51
2022/06/01 04:37:31;;;;;;;;;4.00;4.00;;;;;15.47;48.95;100908.53;4979288;28;45405;-54
2022/06/01 04:39:56;;;;;;;;;2.00;2.00;;;;;15.70;48.94;100949.19;4977118;28;46519;-57
2022/06/01 04:42:22;;;;;;;;;2.50;2.50;;;;;15.69;48.57;100946.69;4978949;28;45294;-56
2022/06/01 04:44:47;;;;;;;;;4.75;4.00;;;;;15.49;49.00;100920.22;4978857;28;45409;-51
2022/06/01 04:47:13;;;;;;;;;3.00;3.00;;;;;15.68;49.12;100954.13;4978068;28;45483;-53
2022/06/01 04:49:38;;;;;;;;;3.00;3.00;;;;;15.41;49.44;100898.44;4978797;28;46705;-49
2022/06/01 04:52:05;;;;;;;;;4.75;4.75;;;;;15.45;48.71;100910.72;4978750;28;45312;-53
2022/06/01 04:54:30;;;;;;;;;4.60;4.60;;;;;15.67;49.20;100949.69;4979026;28;45315;-54
2022/06/01 04:56:56;;;;;;;;;5.75;5.50;;;;;15.72;48.56;100955.34;4978613;28;45404;-52
2022/06/01 04:59:21;;;;;;;;;4.50;4.50;;;;;15.72;48.85;100955.34;4960822;28;46357;-53
2022/06/01 05:01:47;;;;;;;;;4.75;4.75;;;;;15.71;48.29;100961.13;4978214;28;45346;-54
2022/06/01 05:04:12;;;;;;;;;6.75;4.75;;;;;15.74;48.80;100965.31;4978663;28;45490;-50
2022/06/01 05:06:38;;;;;;;;;6.75;4.75;;;;;15.36;48.85;100904.69;4978787;28;45432;-51
2022/06/01 05:09:04;;;;;;;;;4.50;4.50;;;;;15.79;48.56;100974.56;4986849;28;46550;-53
2022/06/01 05:11:29;;;;;;;;;4.50;4.50;;;;;15.53;49.35;100932.47;4998086;28;45452;-55
2022/06/01 05:13:55;;;;;;;;;6.00;5.00;;;;;15.78;48.43;100974.81;4998137;28;45374;-54
2022/06/01 05:16:20;;;;;;;;;4.25;4.00;;;;;15.84;48.66;100984.91;4995839;28;45358;-50
2022/06/01 05:18:46;;;;;;;;;4.00;4.00;;;;;15.82;48.44;100976.03;5029663;28;45695;-51
2022/06/01 05:21:11;;;;;;;;;3.75;3.25;;;;;15.85;48.54;100976.38;4997722;28;45464;-57
2022/06/01 05:23:36;;;;;;;;;4.50;4.50;;;;;15.62;48.19;100937.66;4998217;28;45364;-55
2022/06/01 05:26:02;;;;;;;;;4.50;4.50;;;;;15.60;48.63;100929.59;4998087;28;45420;-53
2022/06/01 05:28:29;;;;;;;;;5.75;5.75;;;;;15.88;48.76;100965.91;5029581;28;46601;-49
2022/06/01 05:31:03;;;;;;;;;5.00;5.00;;;;;15.84;48.64;100963.63;5013227;28;45383;-52
2022/06/01 05:33:28;;;;;;;;;6.60;6.60;;;;;15.84;48.47;100968.31;4996474;28;45264;-51
2022/06/01 05:35:54;;;;;;;;;6.50;5.25;;;;;15.78;48.43;100956.28;4986441;28;45315;-51
2022/06/01 05:38:19;;;;;;;;;6.00;6.00;;;;;15.93;48.44;100972.44;4955720;28;46034;-54
2022/06/01 05:40:45;;;;;;;;;5.00;5.00;;;;;15.79;48.37;100946.09;4976796;28;45300;-57
2022/06/01 05:43:11;;;;;;;;;5.75;5.75;;;;;15.92;48.60;100962.47;4978521;28;45322;-51
2022/06/01 05:45:37;;;;;;;;;5.80;4.60;;;;;15.96;48.29;100963.63;4977269;28;45777;-50
2022/06/01 05:48:03;;;;;;;;;8.60;5.00;;;;;15.96;48.21;100954.50;4977017;28;45445;-49
2022/06/01 05:50:29;;;;;;;;;4.50;4.50;;;;;16.04;48.10;100965.19;4977696;28;45461;-51
2022/06/01 05:52:54;;;;;;;;;2.50;1.75;;;;;16.05;47.84;100966.03;4978298;28;45331;-55
2022/06/01 05:55:20;;;;;;;;;5.00;4.00;;;;;16.07;47.85;100958.34;4978236;28;45555;-50
2022/06/01 05:57:45;;;;;;;;;6.25;4.00;;;;;16.12;47.61;100966.75;4977801;28;46343;-54
2022/06/01 06:00:11;;;;;;;;;3.00;3.00;;;;;16.12;47.42;100967.59;4978181;28;45417;-50
2022/06/01 06:02:40;;;;;;;;;5.40;4.00;;;;;15.99;47.71;100954.00;4960495;28;45467;-50
2022/06/01 06:07:50;;;;;;;;;2.80;2.80;;;;;15.85;47.02;100929.31;4977527;28;45437;-49
2022/06/01 06:10:16;;;;;;;;;2.50;2.50;;;;;16.02;47.16;100947.16;4993282;28;45301;-53
2022/06/01 06:12:41;;;;;;;;;3.25;3.25;;;;;15.92;46.88;100934.78;4997181;28;45349;-54
2022/06/01 06:15:07;;;;;;;;;3.25;3.25;;;;;16.12;46.85;100964.81;5029317;28;45359;-49
2022/06/01 06:17:33;;;;;;;;;3.40;2.80;;;;;15.65;46.80;100898.44;4997038;28;46467;-51
2022/06/01 06:19:58;;;;;;;;;5.00;5.00;;;;;15.95;46.91;100925.16;4997513;28;45404;-59
2022/06/01 06:22:25;;;;;;;;;2.25;2.25;;;;;16.06;46.84;100938.09;4997092;28;45485;-56
2022/06/01 06:24:51;;;;;;;;;3.20;3.20;;;;;16.22;46.59;100966.97;4997548;28;45386;-56
2022/06/01 06:27:16;;;;;;;;;2.25;2.00;;;;;15.99;46.38;100931.88;4996988;28;46815;-53
2022/06/01 06:29:42;;;;;;;;;2.25;2.25;;;;;16.24;46.45;100963.97;4996662;28;45432;-54
2022/06/01 06:32:08;;;;;;;;;3.00;2.25;;;;;16.05;46.06;100924.50;4997187;28;45303;-55
2022/06/01 06:34:33;;;;;;;;;2.50;2.00;;;;;16.38;46.07;100970.03;4997070;28;45271;-54
2022/06/01 06:36:59;;;;;;;;;1.25;1.25;;;;;16.36;45.80;100967.53;4996858;28;45500;-54
2022/06/01 06:39:24;;;;;;;;;2.00;1.75;;;;;16.38;45.60;100973.66;4997064;28;45310;-55
2022/06/01 06:41:49;;;;;;;;;1.25;1.25;;;;;16.35;45.88;100965.00;4996951;28;45231;-52
2022/06/01 06:44:15;;;;;;;;;3.50;2.50;;;;;16.23;45.33;100945.66;4997370;28;45373;-54
2022/06/01 06:46:41;;;;;;;;;1.00;1.00;;;;;16.37;45.29;100977.53;4995281;28;45269;-51
2022/06/01 06:49:06;;;;;;;;;2.00;2.00;;;;;16.43;45.57;100978.47;4996809;28;45211;-54
2022/06/01 06:51:32;;;;;;;;;2.25;1.00;;;;;16.37;45.09;100966.44;4997020;28;45459;-55
2022/06/01 06:53:57;;;;;;;;;1.25;1.25;;;;;16.18;45.71;100940.88;4997195;28;45246;-53
2022/06/01 06:56:23;;;;;;;;;3.00;3.00;;;;;16.37;45.30;100983.06;4996601;28;46133;-54
2022/06/01 06:58:48;;;;;;;;;2.75;2.50;;;;;16.42;45.29;100989.81;4996332;28;45444;-50
2022/06/01 07:01:14;;;;;;;;;5.75;3.00;;;;;16.42;45.22;100984.28;4996922;28;45461;-51
2022/06/01 07:03:39;;;;;;;;;1.25;1.25;;;;;16.44;45.43;100994.00;4996686;28;45344;-54
2022/06/01 07:06:17;;;;;;;;;2.00;2.00;;;;;16.41;45.25;100986.19;4996364;28;45734;-52
2022/06/01 07:08:47;;;;;;;;;1.20;1.20;;;;;16.46;45.33;100991.84;4993758;28;45433;-53
2022/06/01 07:11:15;;;;;;;;;0.60;0.60;;;;;16.27;45.29;100960.69;4976768;28;45373;-51
2022/06/01 07:13:41;;;;;;;;;2.60;2.20;;;;;16.49;45.43;100993.28;4975714;28;45561;-51
2022/06/01 07:16:11;;;;;;;;;2.00;2.00;;;;;16.37;45.36;100966.44;4976184;28;46119;-53
2022/06/01 07:18:38;;;;;;;;;3.00;2.00;;;;;16.13;44.76;100927.72;4976824;28;45263;-51
2022/06/01 07:21:04;;;;;;;;;1.80;1.80;;;;;16.53;44.90;101000.00;4976432;28;45437;-50
2022/06/01 07:23:29;;;;;;;;;2.50;2.50;;;;;16.59;45.05;100995.41;4976994;28;45685;-53
2022/06/01 07:25:55;;;;;;;;;1.25;1.25;;;;;16.62;44.76;100987.44;4976384;28;46412;-52
2022/06/01 07:28:23;;;;;;;;;1.00;1.00;;;;;16.49;44.97;100987.75;4976142;28;45405;-51
2022/06/01 07:30:50;;;;;;;;;2.00;2.00;;;;;16.51;44.68;100988.31;4976610;28;45373;-56
2022/06/01 07:33:17;;;;;;;;;2.60;2.60;;;;;16.38;44.75;100962.59;4976477;28;45577;-55
2022/06/01 07:35:42;;;;;;;;;1.40;1.40;;;;;16.66;44.61;100987.78;4956752;28;46552;-56
2022/06/01 07:43:39;;;;;;;;;3.40;2.00;;;;;16.79;44.20;101003.28;4976412;28;45376;-51
2022/06/01 07:46:04;;;;;;;;;4.20;3.00;;;;;16.56;44.49;100962.66;4974387;28;45440;-51
2022/06/01 07:48:30;;;;;;;;;3.00;3.00;;;;;16.87;44.37;101002.88;4975931;28;45693;-56
2022/06/01 07:50:55;;;;;;;;;1.75;1.75;;;;;16.73;45.06;100963.53;4975015;28;45384;-55
2022/06/01 07:53:20;;;;;;;;;5.00;3.50;;;;;16.96;44.34;100974.78;4976127;28;45488;-54
2022/06/01 07:55:46;;;;;;;;;3.00;3.00;;;;;17.02;44.14;100966.31;4974632;28;46623;-51
2022/06/01 07:58:11;;;;;;;;;1.75;1.75;;;;;16.94;44.25;100950.06;4975796;28;45364;-56
2022/06/01 08:00:37;;;;;;;;;7.75;6.50;;;;;17.06;44.10;100980.50;4976323;28;45434;-60
2022/06/01 08:03:03;;;;;;;;;3.50;3.00;;;;;17.18;44.42;100986.84;4976061;28;45419;-54
2022/06/01 08:05:29;;;;;;;;;4.60;4.60;;;;;17.18;44.19;100991.56;4975950;28;45414;-54
2022/06/01 08:07:55;;;;;;;;;4.00;4.00;;;;;16.98;44.52;100953.16;4974579;28;45363;-52
2022/06/01 08:10:20;;;;;;;;;6.50;5.50;;;;;17.29;44.74;100987.84;4989834;28;45458;-53
2022/06/01 08:15:30;;;;;;;;;5.80;5.60;;;;;17.45;44.56;101000.03;4994912;28;45329;-50
2022/06/01 08:17:57;;;;;;;;;5.00;4.00;;;;;17.41;44.33;100993.34;4994343;28;45394;-48
2022/06/01 08:20:23;;;;;;;;;6.80;4.40;;;;;17.46;44.14;100992.56;4991206;28;45370;-49
2022/06/01 08:22:48;;;;;;;;;7.00;3.75;;;;;17.49;44.09;100997.59;4975921;28;45363;-50
2022/06/01 08:25:16;;;;;;;;;4.00;2.75;;;;;17.36;43.86;100993.25;4974265;28;46226;-52
2022/06/01 08:27:42;;;;;;;;;3.00;3.00;;;;;17.36;43.90;100989.63;4974174;28;45527;-53
2022/06/01 08:30:08;;;;;;;;;3.00;1.75;;;;;17.37;44.12;100983.81;4975807;28;45286;-51
2022/06/01 08:32:33;;;;;;;;;3.00;3.00;;;;;17.53;44.28;100998.78;4974589;28;45354;-52
2022/06/01 08:34:59;;;;;;;;;3.00;3.00;;;;;17.53;44.06;100993.25;4975297;28;45383;-54
2022/06/01 08:37:24;;;;;;;;;6.50;5.00;;;;;17.55;44.32;100990.22;4951071;28;45291;-50
2022/06/01 08:39:49;;;;;;;;;2.75;2.75;;;;;17.52;44.16;100966.59;4972140;28;45327;-53
2022/06/01 08:42:16;;;;;;;;;3.00;3.00;;;;;17.47;43.56;100958.19;4983211;28;45492;-55
2022/06/01 08:44:43;;;;;;;;;1.40;1.40;;;;;17.52;44.01;100974.91;4975921;28;45330;-54
2022/06/01 08:47:16;;;;;;;;;4.00;4.00;;;;;17.61;44.20;100983.66;4958331;28;45673;-52
2022/06/01 08:49:42;;;;;;;;;4.60;3.00;;;;;17.55;43.98;100948.59;4974654;28;45334;-54
2022/06/01 08:52:07;;;;;;;;;2.00;2.00;;;;;17.86;43.65;100990.66;4977837;28;45319;-52
2022/06/01 08:54:33;;;;;;;;;3.00;3.00;;;;;17.60;43.15;100979.19;4964288;28;45699;-50
2022/06/01 08:57:03;;;;;;;;;3.75;2.50;;;;;17.75;43.58;100984.13;4973912;28;45677;-51
2022/06/01 08:59:35;;;;;;;;;6.00;5.00;;;;;17.82;43.32;100989.53;4960360;28;45372;-55
2022/06/01 09:02:15;;;;;;;;;2.00;2.00;;;;;17.92;43.43;100997.97;4989608;28;45458;-52
2022/06/01 09:05:18;;;;;;;;;1.60;1.60;;;;;18.02;42.68;100995.38;4997179;28;46824;-50
2022/06/01 09:07:56;;;;;;;;;1.00;1.00;;;;;18.12;42.05;100991.91;4977245;28;45586;-51
2022/06/01 09:10:21;;;;;;;;;2.60;1.40;;;;;18.12;41.41;100997.47;4989126;28;45431;-52
2022/06/01 09:12:47;;;;;;;;;4.50;3.25;;;;;18.07;41.38;100991.00;4987591;28;45640;-54
2022/06/01 09:15:21;;;;;;;;;3.00;2.00;;;;;18.19;41.76;101002.00;4976740;28;46749;-51
2022/06/01 09:17:46;;;;;;;;;3.00;1.80;;;;;18.21;41.33;100986.75;4975787;28;45472;-52
2022/06/01 09:23:15;;;;;;;;;2.00;2.00;;;;;18.47;41.49;101000.13;4955798;28;45371;-50
2022/06/01 09:25:50;;;;;;;;;2.80;2.00;;;;;18.54;41.10;100993.28;4972176;28;45699;-55
2022/06/01 09:28:27;;;;;;;;;2.00;2.00;;;;;18.56;40.70;100993.00;4961088;28;45983;-50
2022/06/01 09:31:20;;;;;;;;;1.20;1.20;;;;;18.62;40.90;100994.75;4977949;28;45324;-52
2022/06/01 09:33:46;;;;;;;;;3.20;3.20;;;;;18.64;40.77;100988.94;4957104;28;45606;-50
2022/06/01 09:36:11;;;;;;;;;2.00;2.00;;;;;18.39;40.64;100943.06;4952035;28;45639;-50
2022/06/01 09:38:53;;;;;;;;;7.00;4.00;;;;;18.78;39.65;100995.75;4976341;28;45526;-54
2022/06/01 09:41:24;;;;;;;;;2.00;2.00;;;;;18.58;40.12;100968.59;4993846;28;45827;-55
2022/06/01 09:43:50;;;;;;;;;1.80;1.80;;;;;18.87;40.04;101001.69;4991676;28;45398;-52
2022/06/01 09:46:33;;;;;;;;;3.00;2.00;;;;;18.89;40.06;100993.91;4977034;28;46737;-53
2022/06/01 09:48:59;;;;;;;;;1.40;1.40;;;;;18.96;39.64;100997.34;4975288;28;45394;-52
2022/06/01 09:51:25;;;;;;;;;11.00;5.75;;;;;19.04;39.84;100996.06;4959868;28;45485;-51
2022/06/01 09:54:14;;;;;;;;;6.40;5.20;;;;;18.96;40.03;100986.22;4978032;28;45456;-51
2022/06/01 09:56:45;;;;;;;;;13.20;10.00;;;;;19.06;39.89;100995.81;4977455;28;45705;-54
2022/06/01 10:07:45;;;;;;;;;5.60;3.00;;;;;19.61;39.20;100995.72;4976221;28;45996;-52
2022/06/01 10:10:22;;;;;;;;;3.00;3.00;;;;;19.66;39.20;100983.75;4987576;28;45452;-48
2022/06/01 10:12:52;;;;;;;;;3.00;3.00;;;;;19.78;39.40;100979.69;4983195;28;45456;-51
2022/06/01 10:15:25;;;;;;;;;3.20;2.60;;;;;19.75;38.83;100983.00;5027109;28;45353;-54
2022/06/01 10:17:53;;;;;;;;;3.80;1.80;;;;;19.85;38.86;100993.38;5012074;28;46647;-52
2022/06/01 10:20:30;;;;;;;;;3.40;2.00;;;;;19.74;39.48;100961.00;4995569;28;45443;-55
2022/06/01 10:23:06;;;;;;;;;3.00;3.00;;;;;19.82;39.43;100977.19;4997520;28;45414;-52
2022/06/01 10:25:32;;;;;;;;;2.00;2.00;;;;;19.80;39.40;100979.41;5027972;28;45353;-54
2022/06/01 10:28:02;;;;;;;;;3.00;3.00;;;;;19.33;39.38;100903.94;4995403;28;46652;-55
2022/06/01 10:30:30;;;;;;;;;3.00;2.00;;;;;19.87;39.02;100982.81;5011953;28;45735;-57
2022/06/01 10:33:10;;;;;;;;;1.20;1.20;;;;;19.64;39.46;100937.53;5012004;28;45468;-54
2022/06/01 10:35:52;;;;;;;;;3.00;3.00;;;;;19.83;38.33;100944.59;5012985;28;45337;-53
2022/06/01 10:38:25;;;;;;;;;3.20;2.20;;;;;19.89;37.00;100975.03;4961930;28;46806;-52
2022/06/01 10:41:03;;;;;;;;;1.40;1.40;;;;;19.80;37.85;100970.22;4977348;28;45456;-56
2022/06/01 10:43:53;;;;;;;;;2.40;2.40;;;;;19.88;37.58;100973.34;4960408;28;45276;-56
2022/06/01 10:46:40;;;;;;;;;2.00;2.00;;;;;20.02;37.50;100979.28;4976198;28;45402;-56
2022/06/01 10:49:14;;;;;;;;;1.20;1.20;;;;;20.03;38.44;100974.56;4976823;28;46748;-60
2022/06/01 10:51:40;;;;;;;;;2.80;2.80;;;;;19.84;37.38;100954.66;4975921;28;45443;-56
2022/06/01 10:54:13;;;;;;;;;4.50;3.25;;;;;19.93;38.04;100972.53;4977281;28;45369;-52
2022/06/01 10:56:39;;;;;;;;;2.60;2.60;;;;;19.85;38.52;100923.75;4976261;28;45404;-53
2022/06/01 10:59:07;;;;;;;;;3.00;3.00;;;;;19.99;38.48;100935.28;4975856;28;46444;-53
2022/06/01 11:01:55;;;;;;;;;2.00;2.00;;;;;20.10;38.00;100936.16;4975729;28;45371;-55
2022/06/01 11:04:29;;;;;;;;;2.00;2.00;;;;;20.35;37.77;100959.66;4976845;28;45311;-55
2022/06/01 11:07:05;;;;;;;;;3.00;3.00;;;;;20.25;38.01;100952.09;4977641;28;45371;-58
2022/06/01 11:10:00;;;;;;;;;2.40;1.40;;;;;20.29;37.95;100956.00;4979815;28;45409;-58
2022/06/01 11:12:47;;;;;;;;;2.00;2.00;;;;;20.35;37.85;100956.88;4996109;28;45354;-54
2022/06/01 11:15:19;;;;;;;;;2.00;2.00;;;;;20.36;38.50;100943.75;4996612;28;45402;-53
2022/06/01 11:17:46;;;;;;;;;2.40;2.00;;;;;20.42;37.54;100943.53;4996552;28;45358;-54
2022/06/01 11:20:42;;;;;;;;;3.60;2.80;;;;;20.56;37.68;100945.78;5027945;28;45466;-58
2022/06/01 11:23:29;;;;;;;;;1.80;1.80;;;;;20.45;37.10;100923.44;4996608;28;45425;-54
2022/06/01 11:26:11;;;;;;;;;1.60;1.60;;;;;20.65;37.13;100958.06;4996464;28;45404;-54
2022/06/01 11:28:55;;;;;;;;;1.60;1.60;;;;;20.65;36.82;100938.56;5025135;28;45391;-55
2022/06/01 11:31:25;;;;;;;;;1.80;0.80;;;;;20.75;36.18;100936.91;4936095;28;49902;-53
2022/06/01 11:33:53;;;;;;;;;0.60;0.60;;;;;20.82;35.54;100943.06;4950879;28;45468;-55
2022/06/01 11:36:30;;;;;;;;;1.80;0.80;;;;;20.84;36.08;100938.06;4980874;28;45506;-52
2022/06/01 11:39:06;;;;;;;;;2.00;2.00;;;;;20.67;35.69;100916.84;5005837;28;45455;-56
2022/06/01 11:41:34;;;;;;;;;1.20;1.00;;;;;20.77;36.10;100929.09;5005391;28;45589;-56
2022/06/01 11:44:02;;;;;;;;;1.80;0.80;;;;;20.91;35.83;100921.06;4988193;28;45606;-57
2022/06/01 11:46:33;;;;;;;;;2.60;1.60;;;;;21.00;34.66;100922.19;4988983;28;45600;-57
2022/06/01 11:49:03;;;;;;;;;0.60;0.60;;;;;21.07;34.72;100921.91;4972053;28;45571;-54
2022/06/01 11:51:38;;;;;;;;;1.40;0.60;;;;;21.21;34.39;100925.81;4986953;28;46898;-53
2022/06/01 11:54:10;;;;;;;;;1.20;1.20;;;;;21.21;34.75;100925.81;4988773;28;45453;-56
2022/06/01 11:56:45;;;;;;;;;0.80;0.80;;;;;21.19;34.71;100910.47;4988535;28;45526;-57
2022/06/01 11:59:33;;;;;;;;;0.40;0.40;;;;;21.30;34.62;100928.03;4977759;28;45414;-56
2022/06/01 12:02:40;;;;;;;;;0.60;0.60;;;;;21.22;34.25;100907.09;4948108;28;46167;-51
2022/06/01 12:05:32;;;;;;;;;1.40;1.40;;;;;21.26;34.29;100917.44;4969312;28;45522;-55